sensor_id;sensor_type;location;lat;lon;timestamp;pressure;altitude;pressure_sealevel;temperature;humidity
39891;BME280;25564;53.312;9.790;2022-11-20T00:01:28;100561.19;;;0.74;94.40
39891;BME280;25564;53.312;9.790;2022-11-20T00:04:00;100553.31;;;0.72;94.58
39891;BME280;25564;53.312;9.790;2022-11-20T00:06:31;100552.50;;;0.75;94.30
39891;BME280;25564;53.312;9.790;2022-11-20T00:09:03;100555.16;;;0.76;94.10
39891;BME280;25564;53.312;9.790;2022-11-20T00:11:36;100556.78;;;0.71;94.61
39891;BME280;25564;53.312;9.790;2022-11-20T00:14:09;100549.03;;;0.76;94.29
39891;BME280;25564;53.312;9.790;2022-11-20T00:16:40;100554.28;;;0.76;94.52
39891;BME280;25564;53.312;9.790;2022-11-20T00:19:12;100556.03;;;0.77;94.06
39891;BME280;25564;53.312;9.790;2022-11-20T00:21:43;100550.81;;;0.77;94.17
39891;BME280;25564;53.312;9.790;2022-11-20T00:24:14;100545.59;;;0.77;94.42
39891;BME280;25564;53.312;9.790;2022-11-20T00:26:46;100549.03;;;0.76;93.97
39891;BME280;25564;53.312;9.790;2022-11-20T00:29:17;100546.44;;;0.76;94.15
39891;BME280;25564;53.312;9.790;2022-11-20T00:31:48;100545.53;;;0.74;94.56
39891;BME280;25564;53.312;9.790;2022-11-20T00:34:20;100541.19;;;0.74;94.14
39891;BME280;25564;53.312;9.790;2022-11-20T00:36:51;100548.22;;;0.78;94.48
39891;BME280;25564;53.312;9.790;2022-11-20T00:39:22;100543.00;;;0.78;94.06
39891;BME280;25564;53.312;9.790;2022-11-20T00:41:54;100531.69;;;0.78;94.32
39891;BME280;25564;53.312;9.790;2022-11-20T00:44:25;100537.78;;;0.78;94.49
39891;BME280;25564;53.312;9.790;2022-11-20T00:46:56;100541.25;;;0.77;94.26
39891;BME280;25564;53.312;9.790;2022-11-20T00:49:28;100550.84;;;0.78;94.29
39891;BME280;25564;53.312;9.790;2022-11-20T00:51:59;100537.75;;;0.77;94.29
39891;BME280;25564;53.312;9.790;2022-11-20T00:54:30;100543.81;;;0.76;94.65
39891;BME280;25564;53.312;9.790;2022-11-20T00:57:02;100541.16;;;0.73;94.47
39891;BME280;25564;53.312;9.790;2022-11-20T00:59:33;100542.91;;;0.74;94.45
39891;BME280;25564;53.312;9.790;2022-11-20T01:02:04;100535.91;;;0.71;94.16
39891;BME280;25564;53.312;9.790;2022-11-20T01:04:36;100528.09;;;0.73;94.36
39891;BME280;25564;53.312;9.790;2022-11-20T01:07:07;100534.13;;;0.70;94.08
39891;BME280;25564;53.312;9.790;2022-11-20T01:09:38;100534.16;;;0.72;94.06
39891;BME280;25564;53.312;9.790;2022-11-20T01:12:10;100537.63;;;0.71;94.36
39891;BME280;25564;53.312;9.790;2022-11-20T01:14:41;100528.09;;;0.73;94.13
39891;BME280;25564;53.312;9.790;2022-11-20T01:17:12;100514.13;;;0.71;94.35
39891;BME280;25564;53.312;9.790;2022-11-20T01:19:49;100507.16;;;0.70;94.14
39891;BME280;25564;53.312;9.790;2022-11-20T01:22:21;100515.84;;;0.69;94.32
39891;BME280;25564;53.312;9.790;2022-11-20T01:24:52;100514.97;;;0.70;94.68
39891;BME280;25564;53.312;9.790;2022-11-20T01:27:23;100505.38;;;0.69;93.76
39891;BME280;25564;53.312;9.790;2022-11-20T01:29:55;100506.22;;;0.66;94.40
39891;BME280;25564;53.312;9.790;2022-11-20T01:32:31;100498.28;;;0.61;94.02
39891;BME280;25564;53.312;9.790;2022-11-20T01:35:02;100480.78;;;0.56;94.33
39891;BME280;25564;53.312;9.790;2022-11-20T01:37:34;100491.16;;;0.53;94.16
39891;BME280;25564;53.312;9.790;2022-11-20T01:40:05;100490.28;;;0.52;94.56
39891;BME280;25564;53.312;9.790;2022-11-20T01:42:37;100492.06;;;0.55;94.70
39891;BME280;25564;53.312;9.790;2022-11-20T01:45:54;100487.72;;;0.55;93.94
39891;BME280;25564;53.312;9.790;2022-11-20T01:48:36;100494.66;;;0.53;93.72
39891;BME280;25564;53.312;9.790;2022-11-20T01:51:33;100496.34;;;0.51;94.12
39891;BME280;25564;53.312;9.790;2022-11-20T01:54:11;100492.84;;;0.49;93.59
39891;BME280;25564;53.312;9.790;2022-11-20T01:56:45;100484.09;;;0.47;94.29
39891;BME280;25564;53.312;9.790;2022-11-20T01:59:19;100480.63;;;0.48;94.11
39891;BME280;25564;53.312;9.790;2022-11-20T02:01:52;100475.34;;;0.45;94.32
39891;BME280;25564;53.312;9.790;2022-11-20T02:04:24;100469.31;;;0.48;93.93
39891;BME280;25564;53.312;9.790;2022-11-20T02:06:59;100468.47;;;0.50;93.89
39891;BME280;25564;53.312;9.790;2022-11-20T02:09:31;100474.63;;;0.52;94.44
39891;BME280;25564;53.312;9.790;2022-11-20T02:12:03;100475.53;;;0.54;94.12
39891;BME280;25564;53.312;9.790;2022-11-20T02:14:34;100460.69;;;0.52;94.49
39891;BME280;25564;53.312;9.790;2022-11-20T02:17:05;100474.66;;;0.54;93.91
39891;BME280;25564;53.312;9.790;2022-11-20T02:19:37;100462.44;;;0.53;93.84
39891;BME280;25564;53.312;9.790;2022-11-20T02:22:19;100457.19;;;0.51;93.73
39891;BME280;25564;53.312;9.790;2022-11-20T02:24:53;100455.50;;;0.53;94.22
39891;BME280;25564;53.312;9.790;2022-11-20T02:27:25;100447.59;;;0.50;94.25
39891;BME280;25564;53.312;9.790;2022-11-20T02:30:00;100452.00;;;0.53;94.01
39891;BME280;25564;53.312;9.790;2022-11-20T02:32:36;100455.50;;;0.53;94.57
39891;BME280;25564;53.312;9.790;2022-11-20T02:37:53;100450.22;;;0.50;94.46
39891;BME280;25564;53.312;9.790;2022-11-20T02:40:25;100449.38;;;0.51;94.41
39891;BME280;25564;53.312;9.790;2022-11-20T02:42:57;100444.09;;;0.48;94.23
39891;BME280;25564;53.312;9.790;2022-11-20T02:45:28;100444.09;;;0.48;93.96
39891;BME280;25564;53.312;9.790;2022-11-20T02:48:00;100441.53;;;0.51;94.35
39891;BME280;25564;53.312;9.790;2022-11-20T02:50:31;100445.06;;;0.53;94.51
39891;BME280;25564;53.312;9.790;2022-11-20T02:53:02;100446.78;;;0.53;94.20
39891;BME280;25564;53.312;9.790;2022-11-20T02:55:33;100442.44;;;0.53;94.71
39891;BME280;25564;53.312;9.790;2022-11-20T02:58:05;100444.25;;;0.57;94.52
39891;BME280;25564;53.312;9.790;2022-11-20T03:00:36;100456.53;;;0.63;94.30
39891;BME280;25564;53.312;9.790;2022-11-20T03:03:08;100450.50;;;0.65;94.67
39891;BME280;25564;53.312;9.790;2022-11-20T03:05:39;100449.63;;;0.67;94.55
39891;BME280;25564;53.312;9.790;2022-11-20T03:08:10;100447.97;;;0.70;94.69
39891;BME280;25564;53.312;9.790;2022-11-20T03:10:41;100440.97;;;0.68;94.24
39891;BME280;25564;53.312;9.790;2022-11-20T03:13:13;100448.94;;;0.75;94.24
39891;BME280;25564;53.312;9.790;2022-11-20T03:15:44;100444.59;;;0.76;95.00
39891;BME280;25564;53.312;9.790;2022-11-20T03:18:15;100444.63;;;0.79;94.57
39891;BME280;25564;53.312;9.790;2022-11-20T03:20:47;100438.59;;;0.81;94.26
39891;BME280;25564;53.312;9.790;2022-11-20T03:23:18;100430.72;;;0.80;94.44
39891;BME280;25564;53.312;9.790;2022-11-20T03:25:49;100423.78;;;0.82;94.34
39891;BME280;25564;53.312;9.790;2022-11-20T03:28:21;100429.06;;;0.85;94.80
39891;BME280;25564;53.312;9.790;2022-11-20T03:30:52;100437.75;;;0.84;94.79
39891;BME280;25564;53.312;9.790;2022-11-20T03:33:23;100432.53;;;0.84;94.20
39891;BME280;25564;53.312;9.790;2022-11-20T03:36:01;100432.53;;;0.84;94.40
39891;BME280;25564;53.312;9.790;2022-11-20T03:38:32;100423.78;;;0.82;95.03
39891;BME280;25564;53.312;9.790;2022-11-20T03:41:16;100427.34;;;0.85;95.01
39891;BME280;25564;53.312;9.790;2022-11-20T03:43:53;100428.28;;;0.89;95.02
39891;BME280;25564;53.312;9.790;2022-11-20T03:46:26;100427.41;;;0.90;94.54
39891;BME280;25564;53.312;9.790;2022-11-20T03:48:57;100416.97;;;0.90;94.46
39891;BME280;25564;53.312;9.790;2022-11-20T03:51:34;100422.19;;;0.90;94.42
39891;BME280;25564;53.312;9.790;2022-11-20T03:54:07;100423.09;;;0.92;94.84
39891;BME280;25564;53.312;9.790;2022-11-20T03:56:38;100413.50;;;0.91;94.22
39891;BME280;25564;53.312;9.790;2022-11-20T03:59:10;100406.53;;;0.90;94.25
39891;BME280;25564;53.312;9.790;2022-11-20T04:01:42;100421.38;;;0.94;94.66
39891;BME280;25564;53.312;9.790;2022-11-20T04:04:19;100410.91;;;0.92;94.72
39891;BME280;25564;53.312;9.790;2022-11-20T04:06:51;100412.69;;;0.93;94.51
39891;BME280;25564;53.312;9.790;2022-11-20T04:09:22;100414.41;;;0.93;94.85
39891;BME280;25564;53.312;9.790;2022-11-20T04:11:54;100403.91;;;0.90;94.29
39891;BME280;25564;53.312;9.790;2022-11-20T04:14:25;100417.94;;;0.95;94.35
39891;BME280;25564;53.312;9.790;2022-11-20T04:16:56;100411.84;;;0.96;94.96
39891;BME280;25564;53.312;9.790;2022-11-20T04:19:28;100413.59;;;0.97;94.49
39891;BME280;25564;53.312;9.790;2022-11-20T04:21:59;100407.44;;;0.93;94.85
39891;BME280;25564;53.312;9.790;2022-11-20T04:24:30;100414.41;;;0.93;94.57
39891;BME280;25564;53.312;9.790;2022-11-20T04:27:02;100413.59;;;0.97;94.92
39891;BME280;25564;53.312;9.790;2022-11-20T04:29:33;100416.25;;;0.98;94.35
39891;BME280;25564;53.312;9.790;2022-11-20T04:32:04;100414.47;;;0.97;94.17
39891;BME280;25564;53.312;9.790;2022-11-20T04:34:36;100411.91;;;0.99;94.48
39891;BME280;25564;53.312;9.790;2022-11-20T04:37:07;100403.09;;;0.94;94.07
39891;BME280;25564;53.312;9.790;2022-11-20T04:39:38;100409.25;;;0.97;94.09
39891;BME280;25564;53.312;9.790;2022-11-20T04:42:10;100403.19;;;0.98;94.53
39891;BME280;25564;53.312;9.790;2022-11-20T04:44:59;100408.38;;;0.97;94.05
39891;BME280;25564;53.312;9.790;2022-11-20T04:47:31;100402.31;;;0.98;94.36
39891;BME280;25564;53.312;9.790;2022-11-20T04:50:02;100383.91;;;0.92;94.53
39891;BME280;25564;53.312;9.790;2022-11-20T04:52:33;100386.56;;;0.95;94.67
39891;BME280;25564;53.312;9.790;2022-11-20T04:55:05;100396.22;;;0.99;94.47
39891;BME280;25564;53.312;9.790;2022-11-20T04:57:37;100393.59;;;0.99;94.20
39891;BME280;25564;53.312;9.790;2022-11-20T05:00:08;100392.69;;;0.97;95.05
39891;BME280;25564;53.312;9.790;2022-11-20T05:02:40;100388.38;;;0.99;94.77
39891;BME280;25564;53.312;9.790;2022-11-20T05:05:11;100386.63;;;0.98;94.53
39891;BME280;25564;53.312;9.790;2022-11-20T05:07:43;100376.16;;;0.96;94.67
39891;BME280;25564;53.312;9.790;2022-11-20T05:10:14;100387.56;;;1.03;94.66
39891;BME280;25564;53.312;9.790;2022-11-20T05:12:46;100387.56;;;1.03;95.01
39891;BME280;25564;53.312;9.790;2022-11-20T05:15:17;100378.00;;;1.05;94.41
39891;BME280;25564;53.312;9.790;2022-11-20T05:17:49;100381.53;;;1.09;94.64
39891;BME280;25564;53.312;9.790;2022-11-20T05:20:21;100366.72;;;1.08;94.39
39891;BME280;25564;53.312;9.790;2022-11-20T05:22:56;100366.78;;;1.12;94.73
39891;BME280;25564;53.312;9.790;2022-11-20T05:25:27;100365.06;;;1.14;94.34
39891;BME280;25564;53.312;9.790;2022-11-20T05:27:59;100358.91;;;1.09;94.41
39891;BME280;25564;53.312;9.790;2022-11-20T05:30:30;100359.84;;;1.14;95.13
39891;BME280;25564;53.312;9.790;2022-11-20T05:33:01;100362.47;;;1.14;95.01
39891;BME280;25564;53.312;9.790;2022-11-20T05:35:32;100365.13;;;1.17;95.00
39891;BME280;25564;53.312;9.790;2022-11-20T05:38:04;100363.41;;;1.19;94.52
39891;BME280;25564;53.312;9.790;2022-11-20T05:40:35;100365.97;;;1.16;94.68
39891;BME280;25564;53.312;9.790;2022-11-20T05:43:06;100369.56;;;1.23;95.05
39891;BME280;25564;53.312;9.790;2022-11-20T05:45:38;100356.41;;;1.18;95.09
39891;BME280;25564;53.312;9.790;2022-11-20T05:48:09;100375.78;;;1.31;94.70
39891;BME280;25564;53.312;9.790;2022-11-20T05:50:40;100380.13;;;1.32;94.88
39891;BME280;25564;53.312;9.790;2022-11-20T05:53:11;100374.06;;;1.35;95.38
39891;BME280;25564;53.312;9.790;2022-11-20T05:55:43;100363.59;;;1.33;95.40
39891;BME280;25564;53.312;9.790;2022-11-20T05:58:14;100368.94;;;1.41;95.22
39891;BME280;25564;53.312;9.790;2022-11-20T06:00:45;100368.97;;;1.44;95.01
39891;BME280;25564;53.312;9.790;2022-11-20T06:03:17;100371.59;;;1.44;94.78
39891;BME280;25564;53.312;9.790;2022-11-20T06:05:48;100368.94;;;1.42;95.25
39891;BME280;25564;53.312;9.790;2022-11-20T06:08:19;100365.41;;;1.39;95.40
39891;BME280;25564;53.312;9.790;2022-11-20T06:10:51;100371.53;;;1.41;94.80
39891;BME280;25564;53.312;9.790;2022-11-20T06:13:22;100368.06;;;1.42;94.87
39891;BME280;25564;53.312;9.790;2022-11-20T06:15:53;100366.34;;;1.42;95.06
39891;BME280;25564;53.312;9.790;2022-11-20T06:18:26;100367.25;;;1.46;94.94
39891;BME280;25564;53.312;9.790;2022-11-20T06:23:37;100368.16;;;1.48;94.98
39891;BME280;25564;53.312;9.790;2022-11-20T06:26:17;100351.63;;;1.49;95.21
39891;BME280;25564;53.312;9.790;2022-11-20T06:28:49;100356.00;;;1.51;95.20
39891;BME280;25564;53.312;9.790;2022-11-20T06:31:22;100342.88;;;1.47;94.84
39891;BME280;25564;53.312;9.790;2022-11-20T06:33:54;100338.50;;;1.46;95.00
39891;BME280;25564;53.312;9.790;2022-11-20T06:36:25;100346.34;;;1.46;95.22
39891;BME280;25564;53.312;9.790;2022-11-20T06:38:57;100345.53;;;1.50;94.93
39891;BME280;25564;53.312;9.790;2022-11-20T06:41:28;100338.59;;;1.52;95.06
39891;BME280;25564;53.312;9.790;2022-11-20T06:43:59;100330.69;;;1.49;95.47
39891;BME280;25564;53.312;9.790;2022-11-20T06:46:31;100330.72;;;1.52;94.81
39891;BME280;25564;53.312;9.790;2022-11-20T06:49:02;100340.31;;;1.51;95.15
39891;BME280;25564;53.312;9.790;2022-11-20T06:51:34;100335.09;;;1.51;94.87
39891;BME280;25564;53.312;9.790;2022-11-20T06:54:07;100329.81;;;1.48;95.42
39891;BME280;25564;53.312;9.790;2022-11-20T06:56:39;100328.94;;;1.48;95.24
39891;BME280;25564;53.312;9.790;2022-11-20T06:59:10;100332.38;;;1.44;95.16
39891;BME280;25564;53.312;9.790;2022-11-20T07:01:41;100326.28;;;1.45;94.71
39891;BME280;25564;53.312;9.790;2022-11-20T07:04:13;100324.53;;;1.44;95.48
39891;BME280;25564;53.312;9.790;2022-11-20T07:06:44;100328.03;;;1.44;95.01
39891;BME280;25564;53.312;9.790;2022-11-20T07:09:17;100322.75;;;1.41;94.81
39891;BME280;25564;53.312;9.790;2022-11-20T07:11:48;100329.84;;;1.50;94.97
39891;BME280;25564;53.312;9.790;2022-11-20T07:14:19;100331.59;;;1.51;94.81
39891;BME280;25564;53.312;9.790;2022-11-20T07:16:51;100327.25;;;1.51;94.92
39891;BME280;25564;53.312;9.790;2022-11-20T07:19:22;100322.03;;;1.53;94.82
39891;BME280;25564;53.312;9.790;2022-11-20T07:21:54;100322.03;;;1.53;94.81
39891;BME280;25564;53.312;9.790;2022-11-20T07:24:25;100330.78;;;1.56;95.04
39891;BME280;25564;53.312;9.790;2022-11-20T07:26:56;100326.47;;;1.58;95.05
39891;BME280;25564;53.312;9.790;2022-11-20T07:29:27;100317.75;;;1.58;94.92
39891;BME280;25564;53.312;9.790;2022-11-20T07:31:59;100321.25;;;1.60;94.70
39891;BME280;25564;53.312;9.790;2022-11-20T07:34:30;100295.03;;;1.54;95.17
39891;BME280;25564;53.312;9.790;2022-11-20T07:37:01;100313.41;;;1.60;94.85
39891;BME280;25564;53.312;9.790;2022-11-20T07:39:40;100321.31;;;1.64;94.81
39891;BME280;25564;53.312;9.790;2022-11-20T07:42:11;100309.09;;;1.63;95.23
39891;BME280;25564;53.312;9.790;2022-11-20T07:44:43;100305.63;;;1.66;94.73
39891;BME280;25564;53.312;9.790;2022-11-20T07:47:14;100306.53;;;1.68;95.79
39891;BME280;25564;53.312;9.790;2022-11-20T07:49:45;100310.91;;;1.71;95.07
39891;BME280;25564;53.312;9.790;2022-11-20T07:52:17;100294.28;;;1.64;95.55
39891;BME280;25564;53.312;9.790;2022-11-20T07:54:48;100303.91;;;1.68;95.07
39891;BME280;25564;53.312;9.790;2022-11-20T07:57:19;100295.16;;;1.66;94.73
39891;BME280;25564;53.312;9.790;2022-11-20T07:59:58;100297.81;;;1.69;95.04
39891;BME280;25564;53.312;9.790;2022-11-20T08:02:29;100309.16;;;1.70;95.01
39891;BME280;25564;53.312;9.790;2022-11-20T08:05:01;100310.00;;;1.67;94.81
39891;BME280;25564;53.312;9.790;2022-11-20T08:07:40;100303.00;;;1.64;94.67
39891;BME280;25564;53.312;9.790;2022-11-20T08:10:13;100292.47;;;1.60;94.57
39891;BME280;25564;53.312;9.790;2022-11-20T08:12:50;100297.72;;;1.60;94.57
39891;BME280;25564;53.312;9.790;2022-11-20T08:15:41;100295.88;;;1.51;94.24
39891;BME280;25564;53.312;9.790;2022-11-20T08:18:12;100321.94;;;1.47;94.75
39891;BME280;25564;53.312;9.790;2022-11-20T08:21:03;100334.88;;;1.35;94.01
39891;BME280;25564;53.312;9.790;2022-11-20T08:23:34;100328.63;;;1.25;94.36
39891;BME280;25564;53.312;9.790;2022-11-20T08:26:06;100331.19;;;1.20;94.22
39891;BME280;25564;53.312;9.790;2022-11-20T08:28:37;100329.44;;;1.19;94.74
39891;BME280;25564;53.312;9.790;2022-11-20T08:31:08;100335.56;;;1.21;94.81
39891;BME280;25564;53.312;9.790;2022-11-20T08:33:40;100342.53;;;1.22;94.48
39891;BME280;25564;53.312;9.790;2022-11-20T08:36:12;100343.50;;;1.29;94.40
39891;BME280;25564;53.312;9.790;2022-11-20T08:38:47;100345.31;;;1.35;94.84
39891;BME280;25564;53.312;9.790;2022-11-20T08:41:20;100340.13;;;1.38;94.83
39891;BME280;25564;53.312;9.790;2022-11-20T08:44:05;100343.72;;;1.46;95.05
39891;BME280;25564;53.312;9.790;2022-11-20T08:46:39;100341.28;;;1.58;94.98
39891;BME280;25564;53.312;9.790;2022-11-20T08:49:14;100339.66;;;1.69;95.23
39891;BME280;25564;53.312;9.790;2022-11-20T08:51:46;100337.19;;;1.81;95.50
39891;BME280;25564;53.312;9.790;2022-11-20T08:54:19;100338.19;;;1.92;95.68
39891;BME280;25564;53.312;9.790;2022-11-20T08:56:52;100330.31;;;1.88;95.77
39891;BME280;25564;53.312;9.790;2022-11-20T08:59:24;100343.50;;;1.97;95.41
39891;BME280;25564;53.312;9.790;2022-11-20T09:02:15;100348.75;;;1.99;95.34
39891;BME280;25564;53.312;9.790;2022-11-20T09:04:46;100348.75;;;1.99;95.20
39891;BME280;25564;53.312;9.790;2022-11-20T09:07:19;100341.72;;;1.94;95.09
39891;BME280;25564;53.312;9.790;2022-11-20T09:09:50;100357.50;;;2.04;96.09
39891;BME280;25564;53.312;9.790;2022-11-20T09:12:41;100347.00;;;2.01;95.56
39891;BME280;25564;53.312;9.790;2022-11-20T09:15:13;100357.47;;;2.01;95.15
39891;BME280;25564;53.312;9.790;2022-11-20T09:17:52;100345.22;;;1.95;95.88
39891;BME280;25564;53.312;9.790;2022-11-20T09:20:24;100352.25;;;2.01;95.39
39891;BME280;25564;53.312;9.790;2022-11-20T09:22:57;100347.97;;;2.07;95.65
39891;BME280;25564;53.312;9.790;2022-11-20T09:25:28;100356.72;;;2.12;96.14
39891;BME280;25564;53.312;9.790;2022-11-20T09:28:00;100351.66;;;2.30;96.21
39891;BME280;25564;53.312;9.790;2022-11-20T09:30:31;100348.31;;;2.47;96.12
39891;BME280;25564;53.312;9.790;2022-11-20T09:33:04;100346.66;;;2.53;96.10
39891;BME280;25564;53.312;9.790;2022-11-20T09:35:35;100346.75;;;2.67;96.31
39891;BME280;25564;53.312;9.790;2022-11-20T09:38:07;100342.34;;;2.61;95.67
39891;BME280;25564;53.312;9.790;2022-11-20T09:40:43;100343.22;;;2.62;96.08
39891;BME280;25564;53.312;9.790;2022-11-20T09:43:21;100344.97;;;2.63;96.14
39891;BME280;25564;53.312;9.790;2022-11-20T09:46:25;100350.31;;;2.74;96.26
39891;BME280;25564;53.312;9.790;2022-11-20T09:51:55;100345.88;;;2.67;96.74
39891;BME280;25564;53.312;9.790;2022-11-20T09:54:34;100342.50;;;2.81;96.83
39891;BME280;25564;53.312;9.790;2022-11-20T09:57:18;100343.50;;;2.95;96.46
39891;BME280;25564;53.312;9.790;2022-11-20T09:59:53;100344.41;;;3.01;96.19
39891;BME280;25564;53.312;9.790;2022-11-20T10:02:37;100343.53;;;3.02;96.07
39891;BME280;25564;53.312;9.790;2022-11-20T10:05:23;100336.59;;;3.10;97.01
39891;BME280;25564;53.312;9.790;2022-11-20T10:08:16;100338.34;;;3.12;96.74
39891;BME280;25564;53.312;9.790;2022-11-20T10:11:24;100340.00;;;2.97;95.89
39891;BME280;25564;53.312;9.790;2022-11-20T10:17:12;100337.38;;;2.95;97.00
39891;BME280;25564;53.312;9.790;2022-11-20T10:20:19;100337.41;;;2.98;96.70
39891;BME280;25564;53.312;9.790;2022-11-20T10:23:00;100339.97;;;2.90;96.56
39891;BME280;25564;53.312;9.790;2022-11-20T10:30:59;100326.66;;;2.65;96.46
39891;BME280;25564;53.312;9.790;2022-11-20T10:33:38;100322.22;;;2.56;97.18
39891;BME280;25564;53.312;9.790;2022-11-20T10:36:44;100320.44;;;2.50;96.42
39891;BME280;25564;53.312;9.790;2022-11-20T10:41:53;100314.38;;;2.57;96.37
39891;BME280;25564;53.312;9.790;2022-11-20T10:44:28;100314.31;;;2.48;96.95
39891;BME280;25564;53.312;9.790;2022-11-20T10:47:25;100303.72;;;2.38;96.58
39891;BME280;25564;53.312;9.790;2022-11-20T10:50:03;100290.59;;;2.32;96.34
39891;BME280;25564;53.312;9.790;2022-11-20T10:52:55;100301.03;;;2.28;96.24
39891;BME280;25564;53.312;9.790;2022-11-20T10:55:43;100296.63;;;2.26;96.42
39891;BME280;25564;53.312;9.790;2022-11-20T10:58:31;100295.78;;;2.27;96.54
39891;BME280;25564;53.312;9.790;2022-11-20T11:01:16;100293.16;;;2.28;96.20
39891;BME280;25564;53.312;9.790;2022-11-20T11:03:50;100290.56;;;2.30;96.25
39891;BME280;25564;53.312;9.790;2022-11-20T11:06:42;100291.47;;;2.32;96.29
39891;BME280;25564;53.312;9.790;2022-11-20T11:09:29;100287.94;;;2.30;96.41
39891;BME280;25564;53.312;9.790;2022-11-20T11:12:07;100287.94;;;2.30;96.33
39891;BME280;25564;53.312;9.790;2022-11-20T11:14:46;100282.72;;;2.30;96.31
39891;BME280;25564;53.312;9.790;2022-11-20T11:17:25;100281.09;;;2.44;96.95
39891;BME280;25564;53.312;9.790;2022-11-20T11:20:15;100282.16;;;2.69;96.96
39891;BME280;25564;53.312;9.790;2022-11-20T11:22:50;100281.41;;;2.87;96.47
39891;BME280;25564;53.312;9.790;2022-11-20T11:25:36;100286.72;;;2.99;96.68
39891;BME280;25564;53.312;9.790;2022-11-20T11:28:20;100275.44;;;3.11;96.99
39891;BME280;25564;53.312;9.790;2022-11-20T11:30:52;100281.59;;;3.26;96.71
39891;BME280;25564;53.312;9.790;2022-11-20T11:33:26;100269.44;;;3.44;96.94
39891;BME280;25564;53.312;9.790;2022-11-20T11:36:00;100273.00;;;3.61;97.11
39891;BME280;25564;53.312;9.790;2022-11-20T11:38:36;100273.06;;;3.76;97.03
39891;BME280;25564;53.312;9.790;2022-11-20T11:41:23;100269.56;;;3.77;96.40
39891;BME280;25564;53.312;9.790;2022-11-20T11:43:57;100281.81;;;3.78;96.64
39891;BME280;25564;53.312;9.790;2022-11-20T11:46:54;100273.06;;;3.79;96.44
39891;BME280;25564;53.312;9.790;2022-11-20T11:49:27;100273.97;;;3.84;96.87
39891;BME280;25564;53.312;9.790;2022-11-20T11:52:10;100266.97;;;3.91;96.84
39891;BME280;25564;53.312;9.790;2022-11-20T11:57:38;100262.66;;;4.13;96.37
39891;BME280;25564;53.312;9.790;2022-11-20T12:00:14;100277.50;;;4.29;96.79
39891;BME280;25564;53.312;9.790;2022-11-20T12:05:39;100274.88;;;4.31;96.72
39891;BME280;25564;53.312;9.790;2022-11-20T12:08:23;100270.50;;;4.40;96.57
39891;BME280;25564;53.312;9.790;2022-11-20T12:16:11;100248.63;;;4.15;95.92
39891;BME280;25564;53.312;9.790;2022-11-20T12:18:44;100256.50;;;4.20;95.63
39891;BME280;25564;53.312;9.790;2022-11-20T12:24:18;100245.13;;;4.27;95.41
39891;BME280;25564;53.312;9.790;2022-11-20T12:27:18;100249.50;;;4.26;95.45
39891;BME280;25564;53.312;9.790;2022-11-20T12:30:14;100238.09;;;4.29;95.54
39891;BME280;25564;53.312;9.790;2022-11-20T12:33:14;100236.34;;;4.40;96.42
39891;BME280;25564;53.312;9.790;2022-11-20T12:35:59;100227.59;;;4.50;96.18
39891;BME280;25564;53.312;9.790;2022-11-20T12:38:42;100230.22;;;4.59;96.57
39891;BME280;25564;53.312;9.790;2022-11-20T12:41:43;100231.97;;;4.67;95.32
39891;BME280;25564;53.312;9.790;2022-11-20T12:48:03;100221.44;;;4.80;95.61
39891;BME280;25564;53.312;9.790;2022-11-20T12:50:55;100217.06;;;4.75;95.66
39891;BME280;25564;53.312;9.790;2022-11-20T13:08:22;100219.75;;;4.11;95.53
39891;BME280;25564;53.312;9.790;2022-11-20T13:11:12;100224.13;;;4.01;94.96
39891;BME280;25564;53.312;9.790;2022-11-20T13:14:05;100220.63;;;3.94;95.04
39891;BME280;25564;53.312;9.790;2022-11-20T13:19:36;100227.59;;;3.89;95.64
39891;BME280;25564;53.312;9.790;2022-11-20T13:22:09;100223.22;;;3.88;95.76
39891;BME280;25564;53.312;9.790;2022-11-20T13:24:50;100220.59;;;3.93;95.19
39891;BME280;25564;53.312;9.790;2022-11-20T13:27:22;100225.00;;;3.96;95.91
39891;BME280;25564;53.312;9.790;2022-11-20T13:30:14;100225.00;;;4.00;95.41
39891;BME280;25564;53.312;9.790;2022-11-20T13:32:53;100220.63;;;4.04;95.29
39891;BME280;25564;53.312;9.790;2022-11-20T13:35:28;100220.63;;;4.05;95.27
39891;BME280;25564;53.312;9.790;2022-11-20T13:38:03;100215.38;;;4.02;94.80
39891;BME280;25564;53.312;9.790;2022-11-20T13:40:38;100220.63;;;4.04;94.38
39891;BME280;25564;53.312;9.790;2022-11-20T13:43:21;100215.38;;;4.04;95.15
39891;BME280;25564;53.312;9.790;2022-11-20T13:45:59;100213.63;;;4.00;94.14
39891;BME280;25564;53.312;9.790;2022-11-20T13:48:41;100203.13;;;3.97;95.09
39891;BME280;25564;53.312;9.790;2022-11-20T13:51:26;100207.50;;;3.96;94.35
39891;BME280;25564;53.312;9.790;2022-11-20T13:54:22;100204.00;;;4.00;94.64
39891;BME280;25564;53.312;9.790;2022-11-20T13:57:30;100199.63;;;4.04;95.28
39891;BME280;25564;53.312;9.790;2022-11-20T14:05:39;100186.44;;;4.46;94.42
39891;BME280;25564;53.312;9.790;2022-11-20T14:08:25;100186.44;;;4.48;94.13
39891;BME280;25564;53.312;9.790;2022-11-20T14:11:24;100185.56;;;4.47;93.13
39891;BME280;25564;53.312;9.790;2022-11-20T14:14:04;100185.56;;;4.53;93.94
39891;BME280;25564;53.312;9.790;2022-11-20T14:16:36;100179.41;;;4.56;93.80
39891;BME280;25564;53.312;9.790;2022-11-20T14:19:34;100185.56;;;4.53;93.17
39891;BME280;25564;53.312;9.790;2022-11-20T14:22:16;100176.81;;;4.42;92.94
39891;BME280;25564;53.312;9.790;2022-11-20T14:25:19;100180.31;;;4.34;93.12
39891;BME280;25564;53.312;9.790;2022-11-20T14:27:59;100178.56;;;4.31;93.18
39891;BME280;25564;53.312;9.790;2022-11-20T14:30:43;100169.84;;;4.20;93.51
39891;BME280;25564;53.312;9.790;2022-11-20T14:33:15;100182.97;;;4.23;93.09
39891;BME280;25564;53.312;9.790;2022-11-20T14:35:49;100180.34;;;4.23;92.92
39891;BME280;25564;53.312;9.790;2022-11-20T14:38:25;100183.84;;;4.25;93.48
39891;BME280;25564;53.312;9.790;2022-11-20T14:41:08;100176.84;;;4.25;92.61
39891;BME280;25564;53.312;9.790;2022-11-20T14:43:45;100164.63;;;4.15;92.97
39891;BME280;25564;53.312;9.790;2022-11-20T14:46:17;100163.75;;;4.07;92.24